OOCL Kaohsiung — 9V9830 — position and weather

sailwx.info

Track history (hours):
 
Tides and Currents Weather Stations Pressure Air Temp Water Temp Dewpoint Dewpoint Depression Visibility Wind Speed Wind Dir Waves Ship Positions

OOCL Kaohsiung

Last reported at 2014-Oct-31 15:33 UTC. Time now 2014-Oct-31 16:30 UTC.
Position N 32°05' W 081°05'.

Length 280 m; draft 12.5 m.

Type: Cargo ship. MMSI: 566389000.

Date/timePositionNaut miles runAvg speedWind from/ knotsBaromVisibWave heightAir tempDewpointWater temp
2014-Oct-31 15:33N 32°05' W 081°05'3 3.3
2014-Oct-31 14:33N 32°07' W 081°08'0 0.0
2014-Oct-31 13:30N 32°07' W 081°08'0 0.0
2014-Oct-31 12:33N 32°07' W 081°08'0 0.0
2014-Oct-31 11:12N 32°07' W 081°08'0 0.0
2014-Oct-31 10:24N 32°07' W 081°08'0 0.0
2014-Oct-31 09:15N 32°07' W 081°08'0 0.0
2014-Oct-31 08:27N 32°07' W 081°08'0 0.0
2014-Oct-31 07:30N 32°07' W 081°08'0 0.0
2014-Oct-31 05:33N 32°07' W 081°08'0 0.0
2014-Oct-31 04:07N 32°07' W 081°08'0 0.0
2014-Oct-31 03:33N 32°07' W 081°08'0 0.0
2014-Oct-31 02:33N 32°07' W 081°08'0 0.0
2014-Oct-31 01:33N 32°07' W 081°08'0 0.0
2014-Oct-31 00:33N 32°07' W 081°08'0 0.0
2014-Oct-30 23:33N 32°07' W 081°08'0 0.0
2014-Oct-30 22:33N 32°07' W 081°08'0 0.0
2014-Oct-30 21:33N 32°07' W 081°08'0 0.0
2014-Oct-30 20:33N 32°07' W 081°08'0 0.0
2014-Oct-30 19:33N 32°07' W 081°08'0 0.0
2014-Oct-30 18:33N 32°07' W 081°08'0 0.0
2014-Oct-30 17:27N 32°07' W 081°08'0 0.0
2014-Oct-30 16:33N 32°07' W 081°08'0 0.0
2014-Oct-30 15:32N 32°07' W 081°08'0 0.0
2014-Oct-30 14:33N 32°07' W 081°08'0 0.0
2014-Oct-30 13:33N 32°07' W 081°08'0 0.0
2014-Oct-30 12:33N 32°07' W 081°08'0 0.0
2014-Oct-30 11:32N 32°07' W 081°08'0 0.0
2014-Oct-30 10:33N 32°07' W 081°08'0 0.0
2014-Oct-30 09:33N 32°07' W 081°08'0 0.0
2014-Oct-30 08:33N 32°07' W 081°08'0 0.0
2014-Oct-30 07:33N 32°07' W 081°08'0 0.0
2014-Oct-30 06:33N 32°07' W 081°08'0 0.1
2014-Oct-30 05:33N 32°07' W 081°08'6 6.2
2014-Oct-30 04:34N 32°06' W 081°01'287 6.6
2014-Oct-28 09:20N 34°20' W 075°58'1919.7
2014-Oct-28 08:23N 34°32' W 075°40'3517.5
2014-Oct-28 06:24N 34°55' W 075°08'1315.5
2014-Oct-28 05:33N 35°06' W 074°59'27218.8
2014-Oct-27 15:04N 39°32' W 073°52'1121.5
2014-Oct-27 14:33N 39°43' W 073°52'2121.3
2014-Oct-27 13:33N 40°04' W 073°50'2019.8
2014-Oct-27 12:33N 40°24' W 073°50'1212.1
2014-Oct-27 11:33N 40°32' W 074°01'8 7.7
2014-Oct-27 10:33N 40°39' W 074°07'2 1.8
2014-Oct-27 09:33N 40°40' W 074°09'0 0.0
2014-Oct-27 08:32N 40°40' W 074°09'0 0.0
2014-Oct-27 07:32N 40°40' W 074°09'0 0.0
2014-Oct-27 06:32N 40°40' W 074°09'0 0.0
2014-Oct-27 05:32N 40°40' W 074°09'0 0.0
2014-Oct-27 04:33N 40°40' W 074°09'0 0.0
2014-Oct-27 03:33N 40°40' W 074°09'0 0.0
2014-Oct-27 02:32N 40°40' W 074°09'0 0.0
2014-Oct-27 01:29N 40°40' W 074°09'0 0.0
2014-Oct-27 00:32N 40°40' W 074°09'0 0.0
2014-Oct-26 23:32N 40°40' W 074°09'0 0.0
2014-Oct-26 22:33N 40°40' W 074°09'0 0.0
2014-Oct-26 21:32N 40°40' W 074°09'0 0.0
2014-Oct-26 20:32N 40°40' W 074°09'0 0.0
2014-Oct-26 19:29N 40°40' W 074°09'0 0.0
2014-Oct-26 18:33N 40°40' W 074°09'0 0.0
2014-Oct-26 17:32N 40°40' W 074°09'0 0.0
2014-Oct-26 16:24N 40°40' W 074°09'0 0.0
2014-Oct-26 15:32N 40°40' W 074°09'0 0.0
2014-Oct-26 14:29N 40°40' W 074°09'0 0.0
2014-Oct-26 13:32N 40°40' W 074°09'0 0.0
2014-Oct-26 12:33N 40°40' W 074°09'0 0.0
2014-Oct-26 11:32N 40°40' W 074°09'0 0.0
2014-Oct-26 10:32N 40°40' W 074°09'1 0.6
2014-Oct-26 09:33N 40°40' W 074°09'5 4.5
2014-Oct-26 08:33N 40°38' W 074°03'1110.8
2014-Oct-26 07:33N 40°29' W 073°55'9 8.2
2014-Oct-26 06:29N 40°27' W 073°43'4411.3
2014-Oct-26 02:33N 40°30' W 072°45'1313.1
2014-Oct-26 01:33N 40°31' W 072°28'1313.4
2014-Oct-26 00:34N 40°31' W 072°10'1313.0
2014-Oct-25 23:33N 40°31' W 071°53'1312.8
2014-Oct-25 22:33N 40°33' W 071°36'1313.0
2014-Oct-25 21:33N 40°37' W 071°20'6 5.9
2014-Oct-25 20:33N 40°32' W 071°15'1514.8
2014-Oct-25 19:33N 40°33' W 070°55'1514.8
2014-Oct-25 18:33N 40°33' W 070°36'1514.7
2014-Oct-25 17:33N 40°33' W 070°17'1514.8
2014-Oct-25 16:33N 40°33' W 069°57'1514.9
2014-Oct-25 15:33N 40°34' W 069°37'1514.6
2014-Oct-25 14:33N 40°35' W 069°18'1414.4
2014-Oct-25 13:33N 40°35' W 068°59'1515.0
2014-Oct-25 12:33N 40°42' W 068°42'1615.7
2014-Oct-25 11:31N 40°49' W 068°23'1817.9
2014-Oct-25 10:31N 40°58' W 068°01'28416.7
2014-Oct-24 17:30N 44°20' W 063°29'1314.2
2014-Oct-24 16:33N 44°33' W 063°32'7 7.4
2014-Oct-24 15:33N 44°40' W 063°35'2 1.6
2014-Oct-24 14:24N 44°40' W 063°38'0 0.0
2014-Oct-24 13:27N 44°40' W 063°38'0 0.0
2014-Oct-24 12:27N 44°40' W 063°38'0 0.0
2014-Oct-24 11:27N 44°40' W 063°38'0 0.0
2014-Oct-24 10:30N 44°40' W 063°38'0 0.0
2014-Oct-24 09:30N 44°40' W 063°38'0 0.0
2014-Oct-24 08:33N 44°40' W 063°38'0 0.0
2014-Oct-24 07:33N 44°40' W 063°38'0 0.0
2014-Oct-24 06:33N 44°40' W 063°38'0 0.0
2014-Oct-24 05:30N 44°40' W 063°38'0 0.0
2014-Oct-24 04:33N 44°40' W 063°38'0 0.0
2014-Oct-24 03:33N 44°40' W 063°38'0 0.0
2014-Oct-24 02:33N 44°40' W 063°38'0 0.0
2014-Oct-24 01:21N 44°40' W 063°38'0 0.0
2014-Oct-24 00:27N 44°40' W 063°38'0 0.0
2014-Oct-23 23:27N 44°40' W 063°38'0 0.0
2014-Oct-23 22:27N 44°40' W 063°38'0 0.0
2014-Oct-23 21:27N 44°40' W 063°38'0 0.0
2014-Oct-23 20:30N 44°40' W 063°38'0 0.0
2014-Oct-23 19:15N 44°40' W 063°38'0 0.0
2014-Oct-23 18:33N 44°40' W 063°38'0 0.0
2014-Oct-23 17:33N 44°40' W 063°38'0 0.0
2014-Oct-23 16:33N 44°40' W 063°38'0 0.0
2014-Oct-23 15:30N 44°40' W 063°38'0 0.0
2014-Oct-23 14:33N 44°40' W 063°38'0 0.0
2014-Oct-23 13:33N 44°40' W 063°38'0 0.0
2014-Oct-23 12:24N 44°40' W 063°38'0 0.0
2014-Oct-23 11:24N 44°40' W 063°38'0 0.0
2014-Oct-23 10:31N 44°40' W 063°38'1 1.2
2014-Oct-23 09:33N 44°41' W 063°36'7 7.4
2014-Oct-23 08:33N 44°34' W 063°32'7 7.4
2014-Oct-23 07:33N 44°28' W 063°26'7 7.5
2014-Oct-23 06:33N 44°28' W 063°16'8 7.6
2014-Oct-23 05:32N 44°28' W 063°05'  
Track history (hours):
 
Tides and Currents Weather Stations Pressure Air Temp Water Temp Dewpoint Dewpoint Depression Visibility Wind Speed Wind Dir Waves Ship Positions

OOCL Kaohsiung

Last reported at 2014-Oct-31 15:33 UTC. Time now 2014-Oct-31 16:30 UTC.
Position N 32°05' W 081°05'.

Length 280 m; draft 12.5 m.

Type: Cargo ship. MMSI: 566389000.

Date/timePositionNaut miles runAvg speedWind from/ knotsBaromVisibWave heightAir tempDewpointWater temp
2014-Oct-31 15:33N 32°05' W 081°05'3 3.3
2014-Oct-31 14:33N 32°07' W 081°08'0 0.0
2014-Oct-31 13:30N 32°07' W 081°08'0 0.0
2014-Oct-31 12:33N 32°07' W 081°08'0 0.0
2014-Oct-31 11:12N 32°07' W 081°08'0 0.0
2014-Oct-31 10:24N 32°07' W 081°08'0 0.0
2014-Oct-31 09:15N 32°07' W 081°08'0 0.0
2014-Oct-31 08:27N 32°07' W 081°08'0 0.0
2014-Oct-31 07:30N 32°07' W 081°08'0 0.0
2014-Oct-31 05:33N 32°07' W 081°08'0 0.0
2014-Oct-31 04:07N 32°07' W 081°08'0 0.0
2014-Oct-31 03:33N 32°07' W 081°08'0 0.0
2014-Oct-31 02:33N 32°07' W 081°08'0 0.0
2014-Oct-31 01:33N 32°07' W 081°08'0 0.0
2014-Oct-31 00:33N 32°07' W 081°08'0 0.0
2014-Oct-30 23:33N 32°07' W 081°08'0 0.0
2014-Oct-30 22:33N 32°07' W 081°08'0 0.0
2014-Oct-30 21:33N 32°07' W 081°08'0 0.0
2014-Oct-30 20:33N 32°07' W 081°08'0 0.0
2014-Oct-30 19:33N 32°07' W 081°08'0 0.0
2014-Oct-30 18:33N 32°07' W 081°08'0 0.0
2014-Oct-30 17:27N 32°07' W 081°08'0 0.0
2014-Oct-30 16:33N 32°07' W 081°08'0 0.0
2014-Oct-30 15:32N 32°07' W 081°08'0 0.0
2014-Oct-30 14:33N 32°07' W 081°08'0 0.0
2014-Oct-30 13:33N 32°07' W 081°08'0 0.0
2014-Oct-30 12:33N 32°07' W 081°08'0 0.0
2014-Oct-30 11:32N 32°07' W 081°08'0 0.0
2014-Oct-30 10:33N 32°07' W 081°08'0 0.0
2014-Oct-30 09:33N 32°07' W 081°08'0 0.0
2014-Oct-30 08:33N 32°07' W 081°08'0 0.0
2014-Oct-30 07:33N 32°07' W 081°08'0 0.0
2014-Oct-30 06:33N 32°07' W 081°08'0 0.1
2014-Oct-30 05:33N 32°07' W 081°08'6 6.2
2014-Oct-30 04:34N 32°06' W 081°01'287 6.6
2014-Oct-28 09:20N 34°20' W 075°58'1919.7
2014-Oct-28 08:23N 34°32' W 075°40'3517.5
2014-Oct-28 06:24N 34°55' W 075°08'1315.5
2014-Oct-28 05:33N 35°06' W 074°59'27218.8
2014-Oct-27 15:04N 39°32' W 073°52'1121.5
2014-Oct-27 14:33N 39°43' W 073°52'2121.3
2014-Oct-27 13:33N 40°04' W 073°50'2019.8
2014-Oct-27 12:33N 40°24' W 073°50'1212.1
2014-Oct-27 11:33N 40°32' W 074°01'8 7.7
2014-Oct-27 10:33N 40°39' W 074°07'2 1.8
2014-Oct-27 09:33N 40°40' W 074°09'0 0.0
2014-Oct-27 08:32N 40°40' W 074°09'0 0.0
2014-Oct-27 07:32N 40°40' W 074°09'0 0.0
2014-Oct-27 06:32N 40°40' W 074°09'0 0.0
2014-Oct-27 05:32N 40°40' W 074°09'0 0.0
2014-Oct-27 04:33N 40°40' W 074°09'0 0.0
2014-Oct-27 03:33N 40°40' W 074°09'0 0.0
2014-Oct-27 02:32N 40°40' W 074°09'0 0.0
2014-Oct-27 01:29N 40°40' W 074°09'0 0.0
2014-Oct-27 00:32N 40°40' W 074°09'0 0.0
2014-Oct-26 23:32N 40°40' W 074°09'0 0.0
2014-Oct-26 22:33N 40°40' W 074°09'0 0.0
2014-Oct-26 21:32N 40°40' W 074°09'0 0.0
2014-Oct-26 20:32N 40°40' W 074°09'0 0.0
2014-Oct-26 19:29N 40°40' W 074°09'0 0.0
2014-Oct-26 18:33N 40°40' W 074°09'0 0.0
2014-Oct-26 17:32N 40°40' W 074°09'0 0.0
2014-Oct-26 16:24N 40°40' W 074°09'0 0.0
2014-Oct-26 15:32N 40°40' W 074°09'0 0.0
2014-Oct-26 14:29N 40°40' W 074°09'0 0.0
2014-Oct-26 13:32N 40°40' W 074°09'0 0.0
2014-Oct-26 12:33N 40°40' W 074°09'0 0.0
2014-Oct-26 11:32N 40°40' W 074°09'0 0.0
2014-Oct-26 10:32N 40°40' W 074°09'1 0.6
2014-Oct-26 09:33N 40°40' W 074°09'5 4.5
2014-Oct-26 08:33N 40°38' W 074°03'1110.8
2014-Oct-26 07:33N 40°29' W 073°55'9 8.2
2014-Oct-26 06:29N 40°27' W 073°43'4411.3
2014-Oct-26 02:33N 40°30' W 072°45'1313.1
2014-Oct-26 01:33N 40°31' W 072°28'1313.4
2014-Oct-26 00:34N 40°31' W 072°10'1313.0
2014-Oct-25 23:33N 40°31' W 071°53'1312.8
2014-Oct-25 22:33N 40°33' W 071°36'1313.0
2014-Oct-25 21:33N 40°37' W 071°20'6 5.9
2014-Oct-25 20:33N 40°32' W 071°15'1514.8
2014-Oct-25 19:33N 40°33' W 070°55'1514.8
2014-Oct-25 18:33N 40°33' W 070°36'1514.7
2014-Oct-25 17:33N 40°33' W 070°17'1514.8
2014-Oct-25 16:33N 40°33' W 069°57'1514.9
2014-Oct-25 15:33N 40°34' W 069°37'1514.6
2014-Oct-25 14:33N 40°35' W 069°18'1414.4
2014-Oct-25 13:33N 40°35' W 068°59'1515.0
2014-Oct-25 12:33N 40°42' W 068°42'1615.7
2014-Oct-25 11:31N 40°49' W 068°23'1817.9
2014-Oct-25 10:31N 40°58' W 068°01'28416.7
2014-Oct-24 17:30N 44°20' W 063°29'1314.2
2014-Oct-24 16:33N 44°33' W 063°32'7 7.4
2014-Oct-24 15:33N 44°40' W 063°35'2 1.6
2014-Oct-24 14:24N 44°40' W 063°38'0 0.0
2014-Oct-24 13:27N 44°40' W 063°38'0 0.0
2014-Oct-24 12:27N 44°40' W 063°38'0 0.0
2014-Oct-24 11:27N 44°40' W 063°38'0 0.0
2014-Oct-24 10:30N 44°40' W 063°38'0 0.0
2014-Oct-24 09:30N 44°40' W 063°38'0 0.0
2014-Oct-24 08:33N 44°40' W 063°38'0 0.0
2014-Oct-24 07:33N 44°40' W 063°38'0 0.0
2014-Oct-24 06:33N 44°40' W 063°38'0 0.0
2014-Oct-24 05:30N 44°40' W 063°38'0 0.0
2014-Oct-24 04:33N 44°40' W 063°38'0 0.0
2014-Oct-24 03:33N 44°40' W 063°38'0 0.0
2014-Oct-24 02:33N 44°40' W 063°38'0 0.0
2014-Oct-24 01:21N 44°40' W 063°38'0 0.0
2014-Oct-24 00:27N 44°40' W 063°38'0 0.0
2014-Oct-23 23:27N 44°40' W 063°38'0 0.0
2014-Oct-23 22:27N 44°40' W 063°38'0 0.0
2014-Oct-23 21:27N 44°40' W 063°38'0 0.0
2014-Oct-23 20:30N 44°40' W 063°38'0 0.0
2014-Oct-23 19:15N 44°40' W 063°38'0 0.0
2014-Oct-23 18:33N 44°40' W 063°38'0 0.0
2014-Oct-23 17:33N 44°40' W 063°38'0 0.0
2014-Oct-23 16:33N 44°40' W 063°38'0 0.0
2014-Oct-23 15:30N 44°40' W 063°38'0 0.0
2014-Oct-23 14:33N 44°40' W 063°38'0 0.0
2014-Oct-23 13:33N 44°40' W 063°38'0 0.0
2014-Oct-23 12:24N 44°40' W 063°38'0 0.0
2014-Oct-23 11:24N 44°40' W 063°38'0 0.0
2014-Oct-23 10:31N 44°40' W 063°38'1 1.2
2014-Oct-23 09:33N 44°41' W 063°36'7 7.4
2014-Oct-23 08:33N 44°34' W 063°32'7 7.4
2014-Oct-23 07:33N 44°28' W 063°26'7 7.5
2014-Oct-23 06:33N 44°28' W 063°16'8 7.6
2014-Oct-23 05:32N 44°28' W 063°05'  

Dump ship's entire track history